createdAt,value
2019-05-05T00:02:04.918Z,0.80
2019-05-05T00:04:45.317Z,0.90
2019-05-05T00:07:17.160Z,0.80
2019-05-05T00:09:46.624Z,0.90
2019-05-05T00:12:30.164Z,0.70
2019-05-05T00:15:18.552Z,0.70
2019-05-05T00:17:48.146Z,0.70
2019-05-05T00:20:17.542Z,0.67
2019-05-05T00:22:48.213Z,0.60
2019-05-05T00:25:19.277Z,0.63
2019-05-05T00:27:48.570Z,0.70
2019-05-05T00:30:17.907Z,0.80
2019-05-05T00:32:47.364Z,0.70
2019-05-05T00:35:19.222Z,0.70
2019-05-05T00:37:48.731Z,0.60
2019-05-05T00:40:18.140Z,0.80
2019-05-05T00:42:47.573Z,0.70
2019-05-05T00:45:17.206Z,0.70
2019-05-05T00:47:57.636Z,0.77
2019-05-05T00:50:26.991Z,0.70
2019-05-05T00:52:56.247Z,0.70
2019-05-05T00:55:25.690Z,0.70
2019-05-05T00:57:56.978Z,1.00
2019-05-05T01:00:49.195Z,0.80
2019-05-05T01:03:26.849Z,0.60
2019-05-05T01:06:01.591Z,0.70
2019-05-05T01:08:31.007Z,0.70
2019-05-05T01:11:00.439Z,0.70
2019-05-05T01:13:29.822Z,0.80
2019-05-05T01:16:01.613Z,0.70
2019-05-05T01:18:31.286Z,0.70
2019-05-05T01:21:01.610Z,1.57
2019-05-05T01:23:34.997Z,0.70
2019-05-05T01:26:05.033Z,1.60
2019-05-05T01:28:35.530Z,0.73
2019-05-05T01:31:09.955Z,0.80
2019-05-05T01:33:59.457Z,0.70
2019-05-05T01:36:28.811Z,0.83
2019-05-05T01:39:18.887Z,0.70
2019-05-05T01:42:14.309Z,0.70
2019-05-05T01:44:44.781Z,1.13
2019-05-05T01:47:14.879Z,4.03
2019-05-05T01:49:45.396Z,0.70
2019-05-05T01:52:15.139Z,1.00
2019-05-05T01:54:44.827Z,0.80
2019-05-05T01:57:15.448Z,1.00
2019-05-05T01:59:45.033Z,0.80
2019-05-05T02:02:16.420Z,0.70
2019-05-05T02:04:45.760Z,0.70
2019-05-05T02:07:18.680Z,0.70
2019-05-05T02:09:48.204Z,0.70
2019-05-05T02:12:24.644Z,0.80
2019-05-05T02:14:55.131Z,0.77
2019-05-05T02:17:24.901Z,0.63
2019-05-05T02:19:55.090Z,0.60
2019-05-05T02:22:25.226Z,0.70
2019-05-05T02:24:55.215Z,0.63
2019-05-05T02:27:25.195Z,0.60
2019-05-05T02:30:16.624Z,0.60
2019-05-05T02:32:55.171Z,0.70
2019-05-05T02:35:25.535Z,0.70
2019-05-05T02:37:55.834Z,0.60
2019-05-05T02:40:25.863Z,0.70
2019-05-05T02:42:55.439Z,0.70
2019-05-05T02:45:37.621Z,0.70
2019-05-05T02:48:15.288Z,0.77
2019-05-05T02:51:01.840Z,0.70
2019-05-05T02:53:39.429Z,0.70
2019-05-05T02:56:14.883Z,0.70
2019-05-05T02:58:45.417Z,0.70
2019-05-05T03:01:25.601Z,0.60
2019-05-05T03:03:55.489Z,0.70
2019-05-05T03:06:27.128Z,0.70
2019-05-05T03:08:58.191Z,0.70
2019-05-05T03:11:30.217Z,0.70
2019-05-05T03:14:04.078Z,0.70
2019-05-05T03:16:38.577Z,0.70
2019-05-05T03:19:09.425Z,0.60
2019-05-05T03:21:39.097Z,0.60
2019-05-05T03:24:08.543Z,0.70
2019-05-05T03:26:38.096Z,0.70
2019-05-05T03:29:09.877Z,0.60
2019-05-05T03:31:39.456Z,0.60
2019-05-05T03:34:09.276Z,0.60
2019-05-05T03:36:38.671Z,0.60
2019-05-05T03:39:10.408Z,0.60
2019-05-05T03:42:09.507Z,0.87
2019-05-05T03:45:01.187Z,0.60
2019-05-05T03:47:33.679Z,0.60
2019-05-05T03:50:05.007Z,0.70
2019-05-05T03:52:34.997Z,0.67
2019-05-05T03:55:05.155Z,0.70
2019-05-05T03:57:35.506Z,0.60
2019-05-05T04:00:05.892Z,0.60
2019-05-05T04:02:44.395Z,0.60
2019-05-05T04:05:27.999Z,0.70
2019-05-05T04:08:05.454Z,0.60
2019-05-05T04:10:35.120Z,0.60
2019-05-05T04:13:04.935Z,1.67
2019-05-05T04:15:35.486Z,0.70
2019-05-05T04:18:14.593Z,0.63
2019-05-05T04:20:44.632Z,0.73
2019-05-05T04:23:14.218Z,0.70
2019-05-05T04:25:43.999Z,0.73
2019-05-05T04:28:13.760Z,0.60
2019-05-05T04:30:44.473Z,0.70
2019-05-05T04:33:14.389Z,0.60
2019-05-05T04:35:44.557Z,0.70
2019-05-05T04:38:14.155Z,0.70
2019-05-05T04:40:43.679Z,0.70
2019-05-05T04:43:14.346Z,0.70
2019-05-05T04:45:43.914Z,0.60
2019-05-05T04:48:18.132Z,0.80
2019-05-05T04:51:06.002Z,0.70
2019-05-05T04:53:57.611Z,0.70
2019-05-05T04:56:29.828Z,1.03
2019-05-05T04:58:58.069Z,1.67
2019-05-05T05:01:27.444Z,0.80
2019-05-05T05:04:10.529Z,0.90
2019-05-05T05:06:43.674Z,0.60
2019-05-05T05:09:14.678Z,0.80
2019-05-05T05:11:44.349Z,1.43
2019-05-05T05:14:14.460Z,0.80
2019-05-05T05:16:44.219Z,0.80
2019-05-05T05:19:13.892Z,0.80
2019-05-05T05:21:57.626Z,0.90
2019-05-05T05:24:15.973Z,0.60
2019-05-05T05:26:45.403Z,0.60
2019-05-05T05:29:15.203Z,0.60
2019-05-05T05:31:54.899Z,0.60
2019-05-05T05:34:24.267Z,2.03
2019-05-05T05:36:53.752Z,1.00
2019-05-05T05:39:45.461Z,0.70
2019-05-05T05:42:14.893Z,0.70
2019-05-05T05:44:59.865Z,0.70
2019-05-05T05:47:48.155Z,1.57
2019-05-05T05:50:24.523Z,0.93
2019-05-05T05:52:54.114Z,1.00
2019-05-05T05:55:23.855Z,0.80
2019-05-05T05:57:54.222Z,0.63
2019-05-05T06:00:23.862Z,1.10
2019-05-05T06:02:54.601Z,1.00
2019-05-05T06:05:24.053Z,1.47
2019-05-05T06:07:54.491Z,0.70
2019-05-05T06:10:26.665Z,0.60
2019-05-05T06:12:55.053Z,0.60
2019-05-05T06:15:24.613Z,0.70
2019-05-05T06:17:54.114Z,0.60
2019-05-05T06:20:23.852Z,0.70
2019-05-05T06:22:53.699Z,0.70
2019-05-05T06:25:26.483Z,0.60
2019-05-05T06:27:54.285Z,0.60
2019-05-05T06:30:24.434Z,0.60
2019-05-05T06:32:54.545Z,0.93
2019-05-05T06:35:24.554Z,2.50
2019-05-05T06:37:54.609Z,4.30
2019-05-05T06:40:44.452Z,3.27
2019-05-05T06:43:31.443Z,4.17
2019-05-05T06:46:04.044Z,3.90
2019-05-05T06:48:34.383Z,3.37
2019-05-05T06:51:04.110Z,4.50
2019-05-05T06:53:34.208Z,2.87
2019-05-05T06:56:04.172Z,3.03
2019-05-05T06:58:35.862Z,3.83
2019-05-05T07:01:05.268Z,3.70
2019-05-05T07:03:35.701Z,3.10
2019-05-05T07:06:05.127Z,3.20
2019-05-05T07:08:37.230Z,3.57
2019-05-05T07:11:09.035Z,3.20
2019-05-05T07:13:40.681Z,4.60
2019-05-05T07:16:12.308Z,5.40
2019-05-05T07:18:44.591Z,3.97
2019-05-05T07:21:20.743Z,4.10
2019-05-05T07:23:56.112Z,3.00
2019-05-05T07:26:25.464Z,3.87
2019-05-05T07:28:57.141Z,3.17
2019-05-05T07:31:26.429Z,22.53
2019-05-05T07:33:55.821Z,3.87
2019-05-05T07:36:44.516Z,3.87
2019-05-05T07:39:23.787Z,4.17
2019-05-05T07:41:54.142Z,4.70
2019-05-05T07:44:29.415Z,3.70
2019-05-05T07:46:54.785Z,4.00
2019-05-05T07:49:26.344Z,4.10
2019-05-05T07:51:56.741Z,7.17
2019-05-05T07:54:26.111Z,5.87
2019-05-05T07:56:57.762Z,3.73
2019-05-05T07:59:27.080Z,4.60
2019-05-05T08:01:56.555Z,3.93
2019-05-05T08:04:25.960Z,6.60
2019-05-05T08:06:55.206Z,2.93
2019-05-05T08:09:25.039Z,2.77
2019-05-05T08:11:54.529Z,3.10
2019-05-05T08:14:24.504Z,3.90
2019-05-05T08:17:31.430Z,2.47
2019-05-05T08:20:04.717Z,2.37
2019-05-05T08:22:34.085Z,2.57
2019-05-05T08:25:14.375Z,3.23
2019-05-05T08:28:08.449Z,3.13
2019-05-05T08:30:44.249Z,3.13
2019-05-05T08:33:14.127Z,2.10
2019-05-05T08:35:44.860Z,2.83
2019-05-05T08:38:14.470Z,2.47
2019-05-05T08:40:51.679Z,2.87
2019-05-05T08:43:20.992Z,2.80
2019-05-05T08:45:50.269Z,4.23
2019-05-05T08:48:19.608Z,2.50
2019-05-05T08:50:48.963Z,2.30
2019-05-05T08:53:18.460Z,2.53
2019-05-05T08:55:47.659Z,2.03
2019-05-05T08:58:16.881Z,2.30
2019-05-05T09:00:46.203Z,2.30
2019-05-05T09:03:15.617Z,2.37
2019-05-05T09:05:45.007Z,2.90
2019-05-05T09:08:14.389Z,2.33
2019-05-05T09:10:44.800Z,2.87
2019-05-05T09:13:14.474Z,3.40
2019-05-05T09:15:44.449Z,3.50
2019-05-05T09:18:14.288Z,2.30
2019-05-05T09:20:44.614Z,2.53
2019-05-05T09:23:14.954Z,2.10
2019-05-05T09:26:04.339Z,2.30
2019-05-05T09:28:46.215Z,2.43
2019-05-05T09:31:16.703Z,2.40
2019-05-05T09:33:48.695Z,3.77
2019-05-05T09:36:20.111Z,2.03
2019-05-05T09:38:49.552Z,2.23
2019-05-05T09:41:18.941Z,2.13
2019-05-05T09:43:48.322Z,2.20
2019-05-05T09:46:17.811Z,2.43
2019-05-05T09:48:47.181Z,2.33
2019-05-05T09:51:16.439Z,1.93
2019-05-05T09:53:45.802Z,2.50
2019-05-05T09:56:15.135Z,2.20
2019-05-05T09:58:44.580Z,2.00
2019-05-05T10:01:14.157Z,2.90
2019-05-05T10:03:44.752Z,2.05
2019-05-05T10:06:15.250Z,2.07
2019-05-05T10:08:45.006Z,2.10
2019-05-05T10:11:23.920Z,1.80
2019-05-05T10:13:54.658Z,2.40
2019-05-05T10:16:27.220Z,2.07
2019-05-05T10:18:57.243Z,1.90
2019-05-05T10:21:26.844Z,3.70
2019-05-05T10:23:57.940Z,2.20
2019-05-05T10:26:27.992Z,2.37
2019-05-05T10:28:57.422Z,2.20
2019-05-05T10:31:26.830Z,2.30
2019-05-05T10:34:00.134Z,2.13
2019-05-05T10:36:30.636Z,2.13
2019-05-05T10:39:07.182Z,2.13
2019-05-05T10:41:36.614Z,2.37
2019-05-05T10:44:05.952Z,6.27
2019-05-05T10:46:35.922Z,2.90
2019-05-05T10:49:05.635Z,3.37
2019-05-05T10:51:35.292Z,2.10
2019-05-05T10:54:06.031Z,2.20
2019-05-05T10:56:35.595Z,2.30
2019-05-05T10:59:06.941Z,2.10
2019-05-05T11:01:36.878Z,1.87
2019-05-05T11:04:08.175Z,2.10
2019-05-05T11:06:38.692Z,1.73
2019-05-05T11:09:11.009Z,1.77
2019-05-05T11:11:40.443Z,3.10
2019-05-05T11:14:10.117Z,2.70
2019-05-05T11:16:39.378Z,2.07
2019-05-05T11:19:08.743Z,1.83
2019-05-05T11:21:38.221Z,1.47
2019-05-05T11:24:07.819Z,1.63
2019-05-05T11:26:37.329Z,1.93
2019-05-05T11:29:14.185Z,2.27
2019-05-05T11:31:43.867Z,1.30
2019-05-05T11:34:17.871Z,1.87
2019-05-05T11:37:00.516Z,1.60
2019-05-05T11:39:30.271Z,1.40
2019-05-05T11:42:00.807Z,1.83
2019-05-05T11:44:30.191Z,1.60
2019-05-05T11:46:59.539Z,1.50
2019-05-05T11:49:28.895Z,1.93
2019-05-05T11:51:58.241Z,1.47
2019-05-05T11:54:27.477Z,1.80
2019-05-05T11:56:56.733Z,2.30
2019-05-05T11:59:26.099Z,3.13
2019-05-05T12:01:55.376Z,3.93
2019-05-05T12:04:26.807Z,2.47
2019-05-05T12:06:56.445Z,1.80
2019-05-05T12:09:33.423Z,1.60
2019-05-05T12:12:04.869Z,1.57
2019-05-05T12:14:34.724Z,2.10
2019-05-05T12:17:07.492Z,1.70
2019-05-05T12:19:36.908Z,1.90
2019-05-05T12:22:06.640Z,2.60
2019-05-05T12:24:44.283Z,2.90
2019-05-05T12:27:31.394Z,1.47
2019-05-05T12:30:14.035Z,1.70
2019-05-05T12:32:43.824Z,1.67
2019-05-05T12:35:15.413Z,2.60
2019-05-05T12:37:45.044Z,2.20
2019-05-05T12:40:14.542Z,2.33
2019-05-05T12:42:44.014Z,2.27
2019-05-05T12:45:17.426Z,1.80
2019-05-05T12:48:04.646Z,2.60
2019-05-05T12:50:36.730Z,2.17
2019-05-05T12:53:06.166Z,2.10
2019-05-05T12:55:41.584Z,1.80
2019-05-05T12:58:08.580Z,1.90
2019-05-05T13:00:50.671Z,2.10
2019-05-05T13:03:20.068Z,1.87
2019-05-05T13:05:49.315Z,2.40
2019-05-05T13:08:19.106Z,2.60
2019-05-05T13:10:49.242Z,3.80
2019-05-05T13:13:18.651Z,3.10
2019-05-05T13:15:53.662Z,2.40
2019-05-05T13:18:24.526Z,2.60
2019-05-05T13:21:12.234Z,2.37
2019-05-05T13:24:04.405Z,2.00
2019-05-05T13:27:01.826Z,3.13
2019-05-05T13:29:33.725Z,2.40
2019-05-05T13:32:03.718Z,3.43
2019-05-05T13:34:33.421Z,2.37
2019-05-05T13:37:03.681Z,2.37
2019-05-05T13:39:34.016Z,2.30
2019-05-05T13:42:04.662Z,3.77
2019-05-05T13:44:51.679Z,2.10
2019-05-05T13:47:21.357Z,2.17
2019-05-05T13:49:51.201Z,3.10
2019-05-05T13:52:20.724Z,5.33
2019-05-05T13:54:55.739Z,2.47
2019-05-05T13:57:31.121Z,3.50
2019-05-05T14:00:00.644Z,3.07
2019-05-05T14:02:30.258Z,2.60
2019-05-05T14:04:59.786Z,1.90
2019-05-05T14:07:29.268Z,2.20
2019-05-05T14:09:59.118Z,2.20
2019-05-05T14:12:28.985Z,2.50
2019-05-05T14:14:59.843Z,2.30
2019-05-05T14:17:29.320Z,2.50
2019-05-05T14:20:05.206Z,2.93
2019-05-05T14:22:30.630Z,2.53
2019-05-05T14:25:08.722Z,2.27
2019-05-05T14:27:40.397Z,2.10
2019-05-05T14:30:20.422Z,3.30
2019-05-05T14:32:54.396Z,2.70
2019-05-05T14:35:51.094Z,3.03
2019-05-05T14:38:25.668Z,2.83
2019-05-05T14:40:55.504Z,3.47
2019-05-05T14:43:24.934Z,3.10
2019-05-05T14:45:54.717Z,3.00
2019-05-05T14:48:24.526Z,2.53
2019-05-05T14:50:54.369Z,2.97
2019-05-05T14:53:25.195Z,2.50
2019-05-05T14:55:54.715Z,2.60
2019-05-05T14:58:24.232Z,3.63
2019-05-05T15:00:53.960Z,2.30
2019-05-05T15:03:24.271Z,2.60
2019-05-05T15:06:00.169Z,2.37
2019-05-05T15:08:47.524Z,2.40
2019-05-05T15:11:27.719Z,3.10
2019-05-05T15:13:57.543Z,4.07
2019-05-05T15:16:28.375Z,2.07
2019-05-05T15:18:58.019Z,2.50
2019-05-05T15:21:30.895Z,2.60
2019-05-05T15:24:00.673Z,2.00
2019-05-05T15:26:34.442Z,2.27
2019-05-05T15:29:04.302Z,2.70
2019-05-05T15:31:34.357Z,2.40
2019-05-05T15:34:04.303Z,2.20
2019-05-05T15:36:34.108Z,2.33
2019-05-05T15:39:07.120Z,2.50
2019-05-05T15:41:41.739Z,2.20
2019-05-05T15:44:13.297Z,2.57
2019-05-05T15:46:44.216Z,2.40
2019-05-05T15:49:14.056Z,2.20
2019-05-05T15:51:44.316Z,2.70
2019-05-05T15:54:14.225Z,2.43
2019-05-05T15:56:44.032Z,2.53
2019-05-05T16:01:51.071Z,2.47
2019-05-05T16:04:23.699Z,16.03
2019-05-05T16:06:59.727Z,3.67
2019-05-05T16:09:37.533Z,2.60
2019-05-05T16:12:07.716Z,2.53
2019-05-05T16:14:47.871Z,2.60
2019-05-05T16:17:43.908Z,2.83
2019-05-05T16:20:18.066Z,2.73
2019-05-05T16:23:00.233Z,2.23
2019-05-05T16:25:31.330Z,2.30
2019-05-05T16:28:01.196Z,4.80
2019-05-05T16:30:31.686Z,2.80
2019-05-05T16:33:01.471Z,2.80
2019-05-05T16:35:31.130Z,2.20
2019-05-05T16:38:06.444Z,2.17
2019-05-05T16:40:44.456Z,2.10
2019-05-05T16:43:16.552Z,2.17
2019-05-05T16:45:49.526Z,2.10
2019-05-05T16:51:50.914Z,2.10
2019-05-05T16:54:27.094Z,2.50
2019-05-05T16:56:57.194Z,1.93
2019-05-05T16:59:34.151Z,2.30
2019-05-05T17:02:04.874Z,2.17
2019-05-05T17:04:35.621Z,1.60
2019-05-05T17:07:07.339Z,2.07
2019-05-05T17:09:37.347Z,1.77
2019-05-05T17:12:09.900Z,2.73
2019-05-05T17:14:58.607Z,2.67
2019-05-05T17:17:38.218Z,2.60
2019-05-05T17:20:13.930Z,2.40
2019-05-05T17:23:05.201Z,3.00
2019-05-05T17:25:34.703Z,2.80
2019-05-05T17:28:04.554Z,2.27
2019-05-05T17:30:34.329Z,3.27
2019-05-05T17:33:03.912Z,3.03
2019-05-05T17:35:33.951Z,2.83
2019-05-05T17:38:13.695Z,3.40
2019-05-05T17:41:10.959Z,3.23
2019-05-05T17:43:58.217Z,2.90
2019-05-05T17:46:58.586Z,2.77
2019-05-05T17:49:45.863Z,2.60
2019-05-05T17:52:40.267Z,4.00
2019-05-05T17:55:29.294Z,5.63
2019-05-05T17:58:02.513Z,5.40
2019-05-05T18:00:34.589Z,4.57
2019-05-05T18:03:04.380Z,2.50
2019-05-05T18:05:59.093Z,2.80
2019-05-05T18:08:53.982Z,4.13
2019-05-05T18:11:45.531Z,3.03
2019-05-05T18:14:21.323Z,4.80
2019-05-05T18:16:50.643Z,2.63
2019-05-05T18:19:20.084Z,7.30
2019-05-05T18:21:54.741Z,6.40
2019-05-05T18:24:26.274Z,5.00
2019-05-05T18:26:55.486Z,3.10
2019-05-05T18:29:25.225Z,3.60
2019-05-05T18:31:54.708Z,3.03
2019-05-05T18:34:24.344Z,4.83
2019-05-05T18:36:54.493Z,3.40
2019-05-05T18:39:24.686Z,3.30
2019-05-05T18:42:04.351Z,3.10
2019-05-05T18:44:37.686Z,3.30
2019-05-05T18:47:14.911Z,3.53
2019-05-05T18:49:42.926Z,2.80
2019-05-05T18:52:15.394Z,3.37
2019-05-05T18:54:44.796Z,5.67
2019-05-05T18:57:15.074Z,4.33
2019-05-05T18:59:44.853Z,3.40
2019-05-05T19:02:39.155Z,6.40
2019-05-05T19:05:19.777Z,5.10
2019-05-05T19:07:59.223Z,4.50
2019-05-05T19:10:28.601Z,5.33
2019-05-05T19:12:58.405Z,4.90
2019-05-05T19:15:28.569Z,7.10
2019-05-05T19:17:59.170Z,5.13
2019-05-05T19:20:41.739Z,6.13
2019-05-05T19:23:11.371Z,4.93
2019-05-05T19:25:41.167Z,6.10
2019-05-05T19:28:11.595Z,4.97
2019-05-05T19:30:41.199Z,7.40
2019-05-05T19:33:10.653Z,5.20
2019-05-05T19:35:45.229Z,4.97
2019-05-05T19:38:15.779Z,4.60
2019-05-05T19:40:45.795Z,6.00
2019-05-05T19:43:20.855Z,4.93
2019-05-05T19:45:55.091Z,5.17
2019-05-05T19:48:26.897Z,7.47
2019-05-05T19:50:59.830Z,5.67
2019-05-05T19:53:29.255Z,6.57
2019-05-05T19:55:58.881Z,5.20
2019-05-05T19:58:28.711Z,6.43
2019-05-05T20:01:11.112Z,5.20
2019-05-05T20:03:40.510Z,8.27
2019-05-05T20:06:10.191Z,7.00
2019-05-05T20:08:41.471Z,5.50
2019-05-05T20:11:14.275Z,6.30
2019-05-05T20:13:44.828Z,7.30
2019-05-05T20:16:26.617Z,8.90
2019-05-05T20:18:56.466Z,7.80
2019-05-05T20:21:25.796Z,7.90
2019-05-05T20:23:55.140Z,8.20
2019-05-05T20:26:24.886Z,9.90
2019-05-05T20:28:55.508Z,7.87
2019-05-05T20:31:25.061Z,9.50
2019-05-05T20:34:05.228Z,7.67
2019-05-05T20:36:35.218Z,9.97
2019-05-05T20:39:07.142Z,6.93
2019-05-05T20:41:36.615Z,8.03
2019-05-05T20:44:06.351Z,6.90
2019-05-05T20:46:38.896Z,11.17
2019-05-05T20:49:08.504Z,8.20
2019-05-05T20:51:37.986Z,9.10
2019-05-05T20:54:14.179Z,11.10
2019-05-05T20:56:44.459Z,10.17
2019-05-05T20:59:27.604Z,12.80
2019-05-05T21:01:47.326Z,9.20
2019-05-05T21:04:16.807Z,7.17
2019-05-05T21:06:51.562Z,10.33
2019-05-05T21:09:21.206Z,6.90
2019-05-05T21:11:50.639Z,7.97
2019-05-05T21:14:31.110Z,14.70
2019-05-05T21:16:54.546Z,7.17
2019-05-05T21:19:24.727Z,6.00
2019-05-05T21:21:56.877Z,4.70
2019-05-05T21:24:28.481Z,5.00
2019-05-05T21:27:00.361Z,6.83
2019-05-05T21:29:39.600Z,5.70
2019-05-05T21:32:00.903Z,6.43
2019-05-05T21:34:30.249Z,4.53
2019-05-05T21:37:00.331Z,5.13
2019-05-05T21:39:29.667Z,4.33
2019-05-05T21:41:58.989Z,4.33
2019-05-05T21:44:28.305Z,4.00
2019-05-05T21:46:59.821Z,5.50
2019-05-05T21:49:29.351Z,4.80
2019-05-05T21:52:26.876Z,4.37
2019-05-05T21:55:00.777Z,5.40
2019-05-05T21:57:44.068Z,5.07
2019-05-05T22:00:34.564Z,4.63
2019-05-05T22:03:04.505Z,5.43
2019-05-05T22:05:34.105Z,9.30
2019-05-05T22:08:04.814Z,5.90
2019-05-05T22:10:34.370Z,7.60
2019-05-05T22:13:04.840Z,6.47
2019-05-05T22:15:35.893Z,4.83
2019-05-05T22:18:05.528Z,5.23
2019-05-05T22:20:40.624Z,5.93
2019-05-05T22:23:15.187Z,6.50
2019-05-05T22:25:44.487Z,4.90
2019-05-05T22:28:14.844Z,6.23
2019-05-05T22:30:44.136Z,5.80
2019-05-05T22:33:17.612Z,7.60
2019-05-05T22:35:46.863Z,7.00
2019-05-05T22:38:16.150Z,7.20
2019-05-05T22:40:49.041Z,0.70
2019-05-05T22:43:18.480Z,0.90
2019-05-05T22:45:47.753Z,0.90
2019-05-05T22:48:17.058Z,0.70
2019-05-05T22:50:46.442Z,0.70
2019-05-05T22:53:16.263Z,0.70
2019-05-05T22:55:45.530Z,0.70
2019-05-05T22:58:20.690Z,0.70
2019-05-05T23:00:50.014Z,0.70
2019-05-05T23:03:34.874Z,0.90
2019-05-05T23:06:08.378Z,0.73
2019-05-05T23:08:37.787Z,0.70
2019-05-05T23:11:07.245Z,0.60
2019-05-05T23:13:36.495Z,0.60
2019-05-05T23:16:21.155Z,0.60
2019-05-05T23:18:50.665Z,0.70
2019-05-05T23:21:47.251Z,0.60
2019-05-05T23:24:25.568Z,0.60
2019-05-05T23:26:55.364Z,0.60
2019-05-05T23:29:26.634Z,0.70
2019-05-05T23:31:56.054Z,0.60
2019-05-05T23:34:25.535Z,0.70
2019-05-05T23:36:55.106Z,2.70
2019-05-05T23:39:24.515Z,0.63
2019-05-05T23:41:54.887Z,0.70
2019-05-05T23:44:24.307Z,0.60
2019-05-05T23:46:53.985Z,0.60
2019-05-05T23:49:24.248Z,2.13
2019-05-05T23:51:54.274Z,0.60
2019-05-05T23:54:24.586Z,0.60
2019-05-05T23:56:54.463Z,0.60
2019-05-05T23:59:24.259Z,0.60
